This is the latest recevied weather packets stored in our database for station/object KD7ECD. If no packets are shown the sender has not sent any weather packets the latest 10 day(s).
| Time | Temp. | Humidity | Pressure | Rain* | Wind** | Luminosity | Snow |
|---|---|---|---|---|---|---|---|
| 1778106907 | 23.89° C | 54% | 1020.2 hPa | 0 mm | - | 672 W/m² | - |
| 1778106306 | 23.89° C | 53% | 1020.4 hPa | 0 mm | - | 708 W/m² | - |
| 1778105705 | 24.44° C | 52% | 1020.5 hPa | 0 mm | - | 715 W/m² | - |
| 1778105104 | 23.89° C | 53% | 1020.8 hPa | 0 mm | - | 706 W/m² | - |
| 1778104502 | 23.33° C | 54% | 1020.8 hPa | 0 mm | - | 724 W/m² | - |
| 1778103900 | 23.33° C | 53% | 1020.9 hPa | 0 mm | - | 751 W/m² | - |
| 1778103295 | 22.78° C | 56% | 1021 hPa | 0 mm | - | 758 W/m² | - |
| 1778102694 | 22.78° C | 54% | 1021.1 hPa | 0 mm | - | 761 W/m² | - |
| 1778102091 | 22.22° C | 55% | 1021.1 hPa | 0 mm | - | 755 W/m² | - |
| 1778101490 | 23.33° C | 54% | 1021.3 hPa | 0 mm | - | 739 W/m² | - |
| 1778100889 | 22.22° C | 56% | 1021.3 hPa | 0 mm | - | 799 W/m² | - |
| 1778100290 | 22.22° C | 57% | 1021.3 hPa | 0 mm | - | 812 W/m² | - |
| 1778099690 | 22.22° C | 56% | 1021.5 hPa | 0 mm | - | 832 W/m² | - |
| 1778099090 | 22.22° C | 56% | 1021.7 hPa | 0 mm | - | 833 W/m² | - |
| 1778098490 | 21.67° C | 57% | 1022.1 hPa | 0 mm | - | 722 W/m² | - |
| 1778097888 | 21.67° C | 56% | 1021.9 hPa | 0 mm | - | 805 W/m² | - |
| 1778097288 | 21.67° C | 58% | 1022 hPa | 0 mm | - | 811 W/m² | - |
| 1778096688 | 21.67° C | 57% | 1022 hPa | 0 mm | - | 845 W/m² | - |
| 1778096088 | 21.67° C | 59% | 1022 hPa | 0 mm | - | 853 W/m² | - |
| 1778095487 | 21.11° C | 60% | 1022.1 hPa | 0 mm | - | 827 W/m² | - |
| 1778094886 | 20.56° C | 62% | 1022.3 hPa | 0 mm | - | 896 W/m² | - |
| 1778094286 | 20.56° C | 62% | 1022.2 hPa | 0 mm | - | 885 W/m² | - |
| 1778093685 | 20° C | 63% | 1022.7 hPa | 0 mm | - | 885 W/m² | - |
| 1778093085 | 20° C | 64% | 1022.4 hPa | 0 mm | - | 860 W/m² | - |
| 1778092483 | 18.89° C | 67% | 1022.7 hPa | 0 mm | - | 900 W/m² | - |
* Rain latest hour (hover to see other rain measurements)
** Current wind speed in m/s (hover to see current wind gust speed)